Time;durP1;ratioP1;P1;durP2;ratioP2;P2;SDS_P1;SDS_P2;PMS_P1;PMS_P2;Temp;Humidity;BMP_temperature;BMP_pressure;BME280_temperature;BME280_humidity;BME280_pressure;Samples;Min_cycle;Max_cycle;Signal;HPM_P1;HPM_P2
2023/01/05 00:01:53;;;;;;;21.05;2.78;;;11.00;94.60;;;;;;4862201;29;20105;-83
2023/01/05 00:04:20;;;;;;;11.40;2.78;;;11.00;94.70;;;;;;4845723;29;20407;-84
2023/01/05 00:06:48;;;;;;;18.27;3.67;;;11.00;94.80;;;;;;4845970;29;20049;-83
2023/01/05 00:09:17;;;;;;;16.40;2.78;;;10.90;94.80;;;;;;4830488;29;20449;-84
2023/01/05 00:23:01;;;;;;;19.73;3.92;;;10.70;95.10;;;;;;4858513;29;20496;-84
2023/01/05 00:25:33;;;;;;;19.98;3.90;;;10.70;95.20;;;;;;4830197;29;20093;-83
2023/01/05 00:28:00;;;;;;;;;;;10.60;95.30;;;;;;4860816;29;20415;-83
2023/01/05 00:30:38;;;;;;;20.25;3.28;;;10.60;95.30;;;;;;4842415;29;19928;-84
2023/01/05 00:33:10;;;;;;;19.50;4.20;;;10.50;95.40;;;;;;4838571;29;20606;-84
2023/01/05 00:35:38;;;;;;;13.50;2.75;;;10.50;95.50;;;;;;4845179;29;20064;-84
2023/01/05 00:38:09;;;;;;;15.73;2.92;;;10.50;95.60;;;;;;4841801;29;20056;-84
2023/01/05 00:40:40;;;;;;;20.17;3.58;;;10.40;95.60;;;;;;4844243;29;20045;-84
2023/01/05 00:43:07;;;;;;;20.70;2.88;;;10.40;95.70;;;;;;4845221;29;20050;-84
2023/01/05 00:45:34;;;;;;;12.63;2.75;;;10.40;95.80;;;;;;4841535;29;20416;-83
2023/01/05 00:48:01;;;;;;;13.57;3.05;;;10.40;95.80;;;;;;4830114;29;20061;-84
2023/01/05 00:50:28;;;;;;;17.52;3.58;;;10.30;95.80;;;;;;4845151;29;20050;-84
2023/01/05 00:52:55;;;;;;;16.58;3.92;;;10.30;95.90;;;;;;4830141;29;20488;-84
2023/01/05 00:55:25;;;;;;;13.00;3.15;;;10.30;95.90;;;;;;4860285;29;20538;-84
2023/01/05 00:57:53;;;;;;;16.67;3.13;;;10.30;96.00;;;;;;4860115;29;20060;-84
2023/01/05 01:00:21;;;;;;;20.38;2.83;;;10.20;96.10;;;;;;4826992;29;20057;-83
2023/01/05 01:02:51;;;;;;;19.05;3.10;;;10.10;96.10;;;;;;4859706;29;20053;-83
2023/01/05 01:05:19;;;;;;;16.10;2.30;;;10.10;96.20;;;;;;4844515;29;20136;-84
2023/01/05 01:07:47;;;;;;;17.65;2.80;;;10.10;96.30;;;;;;4826332;29;20046;-84
2023/01/05 01:10:14;;;;;;;18.33;3.78;;;10.10;96.30;;;;;;4836317;29;20482;-84
2023/01/05 01:12:41;;;;;;;12.50;2.75;;;10.10;96.30;;;;;;4859719;29;20042;-84
2023/01/05 01:15:09;;;;;;;15.73;3.63;;;10.10;96.30;;;;;;4826477;29;20060;-84
2023/01/05 01:17:36;;;;;;;12.20;2.88;;;10.10;96.40;;;;;;4825643;29;20057;-84
2023/01/05 01:20:04;;;;;;;24.35;4.60;;;10.00;96.40;;;;;;4826390;29;20053;-84
2023/01/05 01:22:31;;;;;;;18.92;2.53;;;10.00;96.40;;;;;;4835948;29;20054;-84
2023/01/05 01:25:00;;;;;;;15.77;3.15;;;10.00;96.40;;;;;;4841222;29;20504;-84
2023/01/05 01:27:32;;;;;;;11.70;2.28;;;10.00;96.50;;;;;;4835088;29;20041;-84
2023/01/05 01:30:00;;;;;;;19.48;2.85;;;10.00;96.50;;;;;;4844012;29;20441;-84
2023/01/05 01:32:31;;;;;;;15.38;2.78;;;10.00;96.60;;;;;;4829756;29;20077;-84
2023/01/05 01:35:00;;;;;;;9.50;2.60;;;10.00;96.60;;;;;;4828051;29;20130;-84
2023/01/05 01:37:30;;;;;;;17.55;3.45;;;10.00;96.60;;;;;;4796748;29;20046;-84
2023/01/05 01:40:03;;;;;;;15.98;3.33;;;10.00;96.60;;;;;;4810979;29;20528;-83
2023/01/05 01:42:30;;;;;;;23.63;4.00;;;10.10;96.60;;;;;;4826037;29;20054;-84
2023/01/05 01:45:03;;;;;;;16.30;4.20;;;10.10;96.70;;;;;;4781574;29;20053;-84
2023/01/05 01:47:44;;;;;;;14.50;2.67;;;10.10;96.60;;;;;;4784332;29;20560;-83
2023/01/05 01:50:18;;;;;;;15.57;2.63;;;10.20;96.60;;;;;;4810695;29;20077;-84
2023/01/05 01:52:52;;;;;;;16.38;2.63;;;10.20;96.70;;;;;;4810624;29;20058;-84
2023/01/05 01:55:20;;;;;;;17.40;3.15;;;10.20;96.70;;;;;;4792939;29;20058;-84
2023/01/05 01:57:50;;;;;;;17.50;2.80;;;10.20;96.70;;;;;;4798754;29;20164;-84
2023/01/05 02:00:20;;;;;;;15.27;2.55;;;10.20;96.70;;;;;;4810801;29;20416;-84
2023/01/05 02:02:55;;;;;;;12.80;2.17;;;10.20;96.70;;;;;;4811102;29;20098;-84
2023/01/05 02:05:36;;;;;;;10.23;2.63;;;10.30;96.60;;;;;;4810389;29;20054;-84
2023/01/05 02:08:15;;;;;;;12.95;3.17;;;10.30;96.60;;;;;;4804665;29;20501;-83
2023/01/05 02:11:22;;;;;;;18.52;3.53;;;10.30;96.60;;;;;;4815941;29;20050;-84
2023/01/05 02:14:14;;;;;;;13.70;3.00;;;10.40;96.60;;;;;;4825513;29;20050;-83
2023/01/05 02:16:47;;;;;;;18.48;3.20;;;10.40;96.60;;;;;;4822424;29;20450;-84
2023/01/05 02:19:17;;;;;;;20.70;3.50;;;10.40;96.60;;;;;;4820850;29;20055;-84
2023/01/05 02:22:03;;;;;;;19.40;3.60;;;10.40;96.60;;;;;;4810437;29;20042;-84
2023/01/05 02:24:48;;;;;;;16.15;3.40;;;10.40;96.60;;;;;;4810470;29;20141;-84
2023/01/05 02:27:30;;;;;;;18.63;2.95;;;10.40;96.60;;;;;;4792626;29;20054;-83
2023/01/05 02:30:03;;;;;;;21.13;3.50;;;10.30;96.60;;;;;;4821334;29;20054;-85
2023/01/05 02:32:51;;;;;;;22.05;3.67;;;10.40;96.60;;;;;;4825386;29;20058;-84
2023/01/05 02:36:05;;;;;;;17.05;2.92;;;10.30;96.60;;;;;;4855705;29;20149;-84
2023/01/05 02:39:00;;;;;;;18.20;3.35;;;10.30;96.60;;;;;;4844019;29;20411;-84
2023/01/05 02:41:37;;;;;;;21.13;3.08;;;10.30;96.70;;;;;;4843046;29;20056;-84
2023/01/05 02:44:07;;;;;;;14.35;2.28;;;10.30;96.70;;;;;;4847000;29;20049;-84
2023/01/05 02:46:35;;;;;;;16.45;2.63;;;10.30;96.70;;;;;;4843853;29;20073;-84
2023/01/05 02:49:06;;;;;;;22.20;3.42;;;10.30;96.80;;;;;;4845273;29;20538;-84
2023/01/05 02:51:40;;;;;;;18.15;3.83;;;10.20;96.80;;;;;;4832146;29;20137;-84
2023/01/05 02:54:37;;;;;;;17.85;3.08;;;10.30;96.80;;;;;;4848142;29;20050;-84
2023/01/05 02:57:14;;;;;;;20.23;2.83;;;10.30;96.80;;;;;;4861965;29;20049;-84
2023/01/05 02:59:50;;;;;;;20.13;3.67;;;10.30;96.70;;;;;;4840753;29;20061;-84
2023/01/05 03:02:22;;;;;;;17.98;2.80;;;10.40;96.70;;;;;;4845113;29;20054;-84
2023/01/05 03:05:18;;;;;;;12.00;2.55;;;10.40;96.60;;;;;;4846831;29;20053;-84
2023/01/05 03:07:50;;;;;;;20.67;3.67;;;10.40;96.60;;;;;;4846821;29;20098;-84
2023/01/05 03:16:00;;;;;;;13.38;2.95;;;10.50;96.60;;;;;;4861702;29;20050;-84
2023/01/05 03:18:30;;;;;;;12.10;2.60;;;10.50;96.60;;;;;;4862136;29;20477;-84
2023/01/05 03:21:00;;;;;;;18.08;3.13;;;10.50;96.50;;;;;;4844624;29;20049;-84
2023/01/05 03:38:15;;;;;;;19.85;3.33;;;10.60;96.40;;;;;;4845558;29;20412;-84
2023/01/05 03:40:51;;;;;;;18.00;3.20;;;10.60;96.40;;;;;;4846739;29;20048;-84
2023/01/05 03:43:21;;;;;;;14.00;2.78;;;10.60;96.40;;;;;;4846497;29;20118;-84
2023/01/05 03:45:57;;;;;;;14.40;2.50;;;10.50;96.40;;;;;;4835117;29;20806;-84
2023/01/05 03:48:28;;;;;;;16.50;3.38;;;10.50;96.40;;;;;;4831902;29;20499;-84
2023/01/05 03:50:57;;;;;;;16.00;2.75;;;10.50;96.40;;;;;;4846253;29;20042;-84
2023/01/05 03:53:25;;;;;;;18.38;3.90;;;10.50;96.50;;;;;;4830506;29;20045;-84
2023/01/05 03:55:54;;;;;;;22.33;3.97;;;10.60;96.50;;;;;;4855954;29;20057;-84
2023/01/05 03:58:24;;;;;;;16.60;3.20;;;10.60;96.40;;;;;;4820703;29;20493;-83
2023/01/05 04:00:54;;;;;;;20.05;3.50;;;10.60;96.30;;;;;;4855880;29;20072;-84
2023/01/05 04:03:25;;;;;;;23.65;4.82;;;10.60;96.20;;;;;;4837243;29;20049;-83
2023/01/05 04:06:00;;;;;;;16.35;3.20;;;10.60;96.20;;;;;;4846554;29;20550;-84
2023/01/05 04:08:29;;;;;;;21.42;3.03;;;10.60;96.20;;;;;;4857777;29;20056;-85
2023/01/05 04:11:10;;;;;;;20.65;3.42;;;10.60;96.20;;;;;;4828066;29;20069;-84
2023/01/05 04:13:37;;;;;;;14.98;2.28;;;10.60;96.20;;;;;;4845460;29;20054;-84
2023/01/05 04:16:06;;;;;;;19.98;3.45;;;10.60;96.20;;;;;;4829982;29;20056;-84
2023/01/05 04:18:37;;;;;;;;;;;10.60;96.20;;;;;;4846373;29;20075;-85
2023/01/05 04:21:05;;;;;;;15.25;2.88;;;10.60;96.20;;;;;;4860771;29;19970;-84
2023/01/05 04:23:38;;;;;;;18.70;3.78;;;10.60;96.20;;;;;;4860516;29;20103;-84
2023/01/05 04:26:05;;;;;;;16.08;3.97;;;10.60;96.20;;;;;;4845204;29;20076;-84
2023/01/05 04:28:32;;;;;;;15.35;2.33;;;10.60;96.20;;;;;;4845169;29;20051;-84
2023/01/05 04:31:03;;;;;;;12.82;3.65;;;10.60;96.20;;;;;;4845484;29;20097;-84
2023/01/05 04:33:35;;;;;;;15.13;3.00;;;10.60;96.30;;;;;;4829323;29;20042;-84
2023/01/05 04:36:05;;;;;;;12.27;2.60;;;10.60;96.30;;;;;;4850569;29;20057;-85
2023/01/05 04:38:35;;;;;;;15.18;2.63;;;10.60;96.30;;;;;;4845480;29;20053;-84
2023/01/05 04:41:05;;;;;;;18.30;2.83;;;10.60;96.30;;;;;;4827642;29;20046;-84
2023/01/05 04:43:33;;;;;;;17.77;3.13;;;10.60;96.30;;;;;;4840596;29;20129;-84
2023/01/05 04:46:01;;;;;;;17.23;2.47;;;10.60;96.20;;;;;;4815424;29;20049;-84
2023/01/05 04:48:30;;;;;;;17.20;2.65;;;10.60;96.20;;;;;;4841990;29;20046;-84
2023/01/05 04:51:03;;;;;;;15.32;3.17;;;10.60;96.20;;;;;;4833581;29;20053;-84
2023/01/05 04:53:34;;;;;;;13.70;2.38;;;10.60;96.20;;;;;;4842270;29;20497;-85
2023/01/05 04:56:03;;;;;;;16.75;2.72;;;10.60;96.20;;;;;;4832707;29;20089;-84
2023/01/05 04:58:37;;;;;;;16.02;3.05;;;10.50;96.20;;;;;;4828286;29;20471;-84
2023/01/05 05:01:06;;;;;;;16.25;2.75;;;10.50;96.30;;;;;;4844641;29;20060;-84
2023/01/05 05:03:35;;;;;;;17.63;2.28;;;10.50;96.30;;;;;;4844568;29;20829;-84
2023/01/05 05:06:06;;;;;;;14.60;3.13;;;10.50;96.30;;;;;;4859374;29;20057;-84
2023/01/05 05:08:33;;;;;;;14.50;2.25;;;10.50;96.30;;;;;;4844528;29;20057;-85
2023/01/05 05:11:04;;;;;;;16.42;3.08;;;10.50;96.40;;;;;;4844771;29;20572;-85
2023/01/05 05:13:35;;;;;;;19.10;3.72;;;10.50;96.50;;;;;;4841931;29;20049;-85
2023/01/05 05:16:09;;;;;;;21.73;3.25;;;10.40;96.60;;;;;;4829163;29;20400;-85
2023/01/05 05:18:40;;;;;;;17.80;2.88;;;10.40;96.60;;;;;;4844743;29;20144;-85
2023/01/05 05:21:20;;;;;;;16.20;3.58;;;10.40;96.70;;;;;;4844859;29;20049;-85
2023/01/05 05:23:48;;;;;;;16.38;2.85;;;10.40;96.70;;;;;;4844276;29;20411;-84
2023/01/05 05:26:15;;;;;;;13.85;3.38;;;10.40;96.70;;;;;;4844434;29;20049;-84
2023/01/05 05:28:45;;;;;;;13.93;2.58;;;10.50;96.70;;;;;;4844968;29;20045;-84
2023/01/05 05:31:18;;;;;;;14.80;3.33;;;10.50;96.70;;;;;;4845169;29;20511;-84
2023/01/05 05:33:45;;;;;;;9.75;1.67;;;10.50;96.70;;;;;;4829289;29;20042;-84
2023/01/05 05:36:16;;;;;;;16.65;3.15;;;10.50;96.70;;;;;;4843950;29;20121;-84
2023/01/05 05:38:47;;;;;;;16.65;2.60;;;10.50;96.70;;;;;;4844924;29;20082;-85
2023/01/05 05:41:14;;;;;;;15.68;2.22;;;10.60;96.70;;;;;;4814079;29;20110;-85
2023/01/05 05:43:41;;;;;;;14.63;1.85;;;10.60;96.70;;;;;;4829526;29;20061;-85
2023/01/05 05:46:10;;;;;;;14.23;3.08;;;10.60;96.70;;;;;;4844623;29;20045;-84
2023/01/05 05:48:40;;;;;;;14.23;2.95;;;10.60;96.70;;;;;;4829063;29;20046;-85
2023/01/05 05:51:07;;;;;;;17.13;2.45;;;10.60;96.70;;;;;;4859410;29;20069;-84
2023/01/05 05:53:34;;;;;;;16.42;2.30;;;10.60;96.70;;;;;;4841115;29;20053;-85
2023/01/05 05:56:03;;;;;;;13.60;2.28;;;10.60;96.70;;;;;;4840893;29;20050;-84
2023/01/05 05:58:31;;;;;;;16.35;2.65;;;10.60;96.60;;;;;;4837490;29;20050;-85
2023/01/05 06:01:00;;;;;;;23.55;2.88;;;10.70;96.60;;;;;;4844309;29;20105;-85
2023/01/05 06:03:30;;;;;;;12.07;2.85;;;10.60;96.60;;;;;;4859285;29;20500;-85
2023/01/05 06:06:01;;;;;;;18.73;3.47;;;10.70;96.60;;;;;;4843959;29;20113;-86
2023/01/05 06:08:29;;;;;;;18.60;3.10;;;10.70;96.60;;;;;;4843931;29;20056;-85
2023/01/05 06:10:57;;;;;;;15.32;3.30;;;10.70;96.60;;;;;;4853372;29;20049;-88
2023/01/05 06:13:24;;;;;;;17.83;2.35;;;10.70;96.60;;;;;;4844101;29;20476;-85
2023/01/05 06:15:54;;;;;;;17.80;2.88;;;10.70;96.60;;;;;;4860071;29;20049;-85
2023/01/05 06:18:21;;;;;;;15.15;1.98;;;10.70;96.50;;;;;;4847678;29;20041;-85
2023/01/05 06:20:49;;;;;;;15.77;3.38;;;10.70;96.50;;;;;;4847625;29;20057;-86
2023/01/05 06:23:24;;;;;;;17.83;3.75;;;10.70;96.60;;;;;;4848533;29;20058;-85
2023/01/05 06:25:51;;;;;;;21.63;3.28;;;10.70;96.60;;;;;;4862603;29;20078;-86
2023/01/05 06:28:18;;;;;;;13.25;2.30;;;10.70;96.80;;;;;;4847521;29;20045;-86
2023/01/05 06:30:46;;;;;;;11.82;1.83;;;10.70;96.50;;;;;;4847564;29;20056;-86
2023/01/05 06:33:14;;;;;;;13.75;2.92;;;10.70;96.50;;;;;;4844444;29;20046;-86
2023/01/05 06:35:45;;;;;;;13.00;2.05;;;10.70;96.60;;;;;;4837544;29;20573;-86
2023/01/05 06:38:15;;;;;;;15.85;2.60;;;10.70;96.60;;;;;;4813917;29;20061;-85
2023/01/05 06:40:46;;;;;;;15.38;2.20;;;10.70;96.60;;;;;;4814482;29;20087;-85
2023/01/05 06:43:15;;;;;;;13.43;2.00;;;10.70;96.60;;;;;;4813685;29;20555;-85
2023/01/05 06:45:45;;;;;;;11.88;1.75;;;10.70;96.60;;;;;;4843740;29;20133;-85
2023/01/05 06:48:15;;;;;;;13.40;2.75;;;10.70;96.50;;;;;;4799872;29;20049;-85
2023/01/05 06:50:45;;;;;;;13.30;2.63;;;10.70;96.60;;;;;;4798749;29;20484;-85
2023/01/05 06:53:14;;;;;;;14.55;2.35;;;10.70;96.60;;;;;;4829114;29;20050;-84
2023/01/05 06:55:42;;;;;;;14.27;2.78;;;10.70;96.60;;;;;;4798570;29;20107;-84
2023/01/05 06:58:14;;;;;;;21.02;3.67;;;10.60;96.70;;;;;;4828240;29;20060;-84
2023/01/05 07:00:43;;;;;;;18.98;3.13;;;10.60;96.80;;;;;;4843529;29;20053;-84
2023/01/05 07:03:14;;;;;;;15.57;2.72;;;10.50;96.90;;;;;;4828405;29;20034;-84
2023/01/05 07:05:43;;;;;;;16.15;3.00;;;10.40;97.00;;;;;;4827967;29;20050;-85
2023/01/05 07:08:13;;;;;;;;;;;10.40;97.20;;;;;;4799819;29;20061;-85
2023/01/05 07:10:46;;;;;;;15.25;2.40;;;10.30;97.30;;;;;;4808803;29;19925;-84
2023/01/05 07:13:19;;;;;;;21.40;4.10;;;10.30;97.40;;;;;;4813398;29;20055;-85
2023/01/05 07:15:46;;;;;;;23.02;3.40;;;10.20;97.50;;;;;;4828087;29;20050;-85
2023/01/05 07:18:15;;;;;;;19.23;3.33;;;10.20;97.60;;;;;;4798759;29;20042;-85
2023/01/05 07:20:48;;;;;;;11.82;2.13;;;10.30;97.60;;;;;;4814272;29;20042;-85
2023/01/05 07:23:16;;;;;;;19.58;3.83;;;10.20;97.60;;;;;;4827901;29;20050;-85
2023/01/05 07:25:45;;;;;;;20.13;3.75;;;10.20;97.70;;;;;;4828040;29;20076;-85
2023/01/05 07:28:14;;;;;;;16.35;3.25;;;10.20;97.70;;;;;;4796778;29;20102;-85
2023/01/05 07:30:41;;;;;;;10.23;2.53;;;10.30;97.80;;;;;;4798201;29;20057;-85
2023/01/05 07:33:08;;;;;;;13.05;1.92;;;10.30;97.80;;;;;;4795438;29;20497;-85
2023/01/05 07:35:36;;;;;;;15.10;2.05;;;10.30;97.80;;;;;;4827475;29;20084;-84
2023/01/05 07:38:06;;;;;;;15.02;2.90;;;10.30;97.90;;;;;;4845995;29;20045;-84
2023/01/05 07:40:40;;;;;;;16.17;2.50;;;10.30;97.90;;;;;;4827417;29;20501;-85
2023/01/05 07:43:11;;;;;;;17.80;3.88;;;10.30;97.90;;;;;;4840444;29;20049;-85
2023/01/05 07:45:42;;;;;;;23.35;3.92;;;10.30;97.90;;;;;;4861219;29;20097;-85
2023/01/05 07:48:12;;;;;;;13.93;2.78;;;10.30;97.90;;;;;;4861504;29;20124;-85
2023/01/05 07:50:45;;;;;;;18.63;3.97;;;10.30;97.90;;;;;;4846546;29;20050;-84
2023/01/05 07:53:19;;;;;;;15.68;2.22;;;10.40;97.90;;;;;;4846683;29;20046;-84
2023/01/05 07:55:55;;;;;;;15.65;3.20;;;10.40;97.90;;;;;;4842807;29;20050;-85
2023/01/05 07:58:25;;;;;;;12.90;2.40;;;10.40;97.80;;;;;;4835457;29;20062;-84
2023/01/05 08:00:52;;;;;;;18.23;2.72;;;10.40;97.90;;;;;;4828510;29;20052;-85
2023/01/05 08:03:20;;;;;;;12.63;2.47;;;10.40;97.80;;;;;;4845634;29;20065;-85
2023/01/05 08:05:52;;;;;;;14.63;2.67;;;10.50;97.80;;;;;;4860746;29;20045;-84
2023/01/05 08:08:27;;;;;;;18.75;3.15;;;10.50;97.80;;;;;;4831266;29;20053;-85
2023/01/05 08:10:54;;;;;;;13.00;2.00;;;10.50;97.80;;;;;;4830422;29;20125;-85
2023/01/05 08:16:06;;;;;;;16.63;2.63;;;10.50;97.70;;;;;;4847553;29;20514;-85
2023/01/05 08:18:33;;;;;;;12.95;2.17;;;10.60;97.70;;;;;;4842280;29;20497;-85
2023/01/05 08:21:03;;;;;;;16.10;2.58;;;10.60;97.70;;;;;;4827087;29;20077;-85
2023/01/05 08:23:32;;;;;;;10.07;2.78;;;10.60;97.60;;;;;;4849389;29;20073;-85
2023/01/05 08:26:07;;;;;;;18.27;2.38;;;10.60;97.60;;;;;;4845805;29;20064;-85
2023/01/05 08:28:36;;;;;;;13.23;2.50;;;10.60;97.50;;;;;;4842456;29;20057;-85
2023/01/05 08:31:11;;;;;;;16.52;2.38;;;10.60;97.50;;;;;;4848203;29;20060;-85
2023/01/05 08:33:44;;;;;;;9.50;2.20;;;10.70;97.50;;;;;;4840561;29;20069;-85
2023/01/05 08:36:15;;;;;;;12.20;2.65;;;10.70;97.50;;;;;;4851483;29;20061;-85
2023/01/05 08:38:48;;;;;;;18.45;3.13;;;10.70;97.70;;;;;;4860508;29;20077;-85
2023/01/05 08:41:24;;;;;;;16.27;3.88;;;10.70;97.30;;;;;;4860365;29;20049;-85
2023/01/05 08:43:56;;;;;;;23.10;3.35;;;10.70;97.30;;;;;;4860348;29;20048;-85
2023/01/05 08:46:28;;;;;;;20.83;2.35;;;10.70;97.20;;;;;;4845520;29;20053;-85
2023/01/05 08:48:58;;;;;;;12.18;2.03;;;10.80;97.30;;;;;;4860155;29;20049;-86
2023/01/05 08:51:29;;;;;;;14.93;2.15;;;10.80;97.20;;;;;;4844914;29;20139;-85
2023/01/05 08:53:56;;;;;;;16.17;2.53;;;10.80;97.20;;;;;;4860049;29;20098;-85
2023/01/05 08:56:25;;;;;;;15.77;2.60;;;10.80;97.10;;;;;;4844917;29;20057;-85
2023/01/05 08:58:56;;;;;;;16.93;3.50;;;10.80;97.10;;;;;;4845117;29;20046;-86
2023/01/05 09:01:25;;;;;;;13.95;2.95;;;10.80;97.10;;;;;;4844882;29;20389;-85
2023/01/05 09:03:57;;;;;;;14.60;2.45;;;10.80;97.10;;;;;;4842676;29;20458;-85
2023/01/05 09:06:29;;;;;;;12.25;2.65;;;10.80;97.00;;;;;;4830507;29;20057;-84
2023/01/05 09:08:58;;;;;;;11.50;2.67;;;10.80;97.00;;;;;;4827080;29;20053;-84
2023/01/05 09:11:26;;;;;;;14.98;2.88;;;10.80;97.00;;;;;;4829481;29;20062;-84
2023/01/05 09:13:57;;;;;;;16.75;2.25;;;10.80;97.00;;;;;;4842931;29;20061;-89
2023/01/05 09:16:44;;;;;;;19.88;2.50;;;10.80;96.90;;;;;;4832318;29;20057;-89
2023/01/05 09:19:34;;;;;;;21.85;2.97;;;10.80;96.90;;;;;;4846887;29;20416;-85
2023/01/05 09:22:05;;;;;;;14.32;2.50;;;10.80;96.90;;;;;;4844804;29;20541;-85
2023/01/05 09:24:34;;;;;;;16.88;3.28;;;10.80;96.90;;;;;;4844338;29;20144;-87
2023/01/05 09:27:04;;;;;;;16.42;2.45;;;10.80;96.80;;;;;;4844637;29;20038;-88
2023/01/05 09:29:33;;;;;;;14.38;2.55;;;10.80;96.80;;;;;;4859955;29;20476;-86
2023/01/05 09:32:00;;;;;;;12.13;2.72;;;10.80;96.80;;;;;;4844916;29;20060;-87
2023/01/05 09:34:35;;;;;;;16.90;2.80;;;10.80;96.70;;;;;;4840905;29;20045;-87
2023/01/05 09:37:16;;;;;;;10.80;2.08;;;10.80;96.70;;;;;;4812792;29;20058;-87
2023/01/05 09:39:43;;;;;;;16.70;2.53;;;10.80;96.60;;;;;;4811532;29;20130;-87
2023/01/05 09:42:17;;;;;;;19.65;2.85;;;10.90;96.70;;;;;;4826163;29;20049;-86
2023/01/05 09:44:53;;;;;;;15.55;3.08;;;10.90;96.60;;;;;;4826209;29;20469;-87
2023/01/05 09:47:40;;;;;;;17.77;2.53;;;10.90;96.50;;;;;;4809856;29;20055;-89
2023/01/05 09:50:19;;;;;;;16.45;3.03;;;10.90;96.50;;;;;;4800330;29;20153;-89
2023/01/05 09:53:09;;;;;;;;;;;;;;;;;;;;;
2023/01/05 09:55:52;;;;;;;19.92;3.25;;;10.90;96.30;;;;;;4828893;29;20058;-90
2023/01/05 09:58:39;;;;;;;18.73;3.83;;;10.90;96.30;;;;;;4804382;29;20057;-89
2023/01/05 10:01:12;;;;;;;17.33;2.85;;;11.00;96.30;;;;;;4815771;29;20156;-90
2023/01/05 10:03:59;;;;;;;13.52;1.70;;;11.00;96.20;;;;;;4832305;29;20053;-89
2023/01/05 10:06:38;;;;;;;16.80;2.22;;;11.00;96.20;;;;;;4845397;29;20140;-89
2023/01/05 10:09:17;;;;;;;11.02;2.40;;;11.00;96.30;;;;;;4816062;29;20054;-87
2023/01/05 10:15:15;;;;;;;8.23;1.60;;;11.10;96.10;;;;;;4826558;29;20424;-87
2023/01/05 10:17:43;;;;;;;10.45;1.95;;;11.20;96.10;;;;;;4814088;29;20060;-87
2023/01/05 10:20:50;;;;;;;11.23;1.63;;;11.20;96.10;;;;;;4814113;29;20061;-87
2023/01/05 10:23:49;;;;;;;15.50;2.55;;;11.20;96.00;;;;;;4791184;29;20045;-87
2023/01/05 10:26:20;;;;;;;14.25;3.15;;;11.20;95.90;;;;;;4784780;29;20065;-86
2023/01/05 10:28:55;;;;;;;17.55;2.95;;;11.20;95.80;;;;;;4828945;29;20046;-87
2023/01/05 10:31:44;;;;;;;13.38;2.47;;;11.20;95.80;;;;;;4826443;29;20046;-87
2023/01/05 10:34:42;;;;;;;11.75;3.25;;;11.20;95.90;;;;;;4815529;29;20051;-89
2023/01/05 10:37:35;;;;;;;10.48;2.15;;;11.30;95.80;;;;;;4782907;29;20046;-89
2023/01/05 10:40:16;;;;;;;15.30;3.45;;;11.30;95.80;;;;;;4845233;29;20092;-89
2023/01/05 10:42:44;;;;;;;13.35;2.25;;;11.30;95.80;;;;;;4819123;29;20489;-89
2023/01/05 10:45:14;;;;;;;9.85;1.40;;;11.30;95.80;;;;;;4834877;29;20049;-89
2023/01/05 10:47:44;;;;;;;16.55;2.38;;;11.30;95.90;;;;;;4814677;29;20117;-89
2023/01/05 10:50:33;;;;;;;11.43;2.10;;;11.30;95.80;;;;;;4819028;29;20054;-89
2023/01/05 10:53:20;;;;;;;16.17;3.72;;;11.30;95.80;;;;;;4844360;29;20046;-89
2023/01/05 10:55:56;;;;;;;18.63;2.83;;;11.30;95.80;;;;;;4814648;29;20050;-89
2023/01/05 10:58:24;;;;;;;19.98;2.47;;;11.30;95.80;;;;;;4829181;29;20053;-89
2023/01/05 11:01:17;;;;;;;10.48;1.70;;;11.30;95.80;;;;;;4829653;29;20098;-89
2023/01/05 11:03:47;;;;;;;8.65;1.95;;;11.30;95.80;;;;;;4820769;29;20177;-89
2023/01/05 11:06:36;;;;;;;14.80;1.70;;;11.30;95.80;;;;;;4819916;29;20054;-89
2023/01/05 11:09:09;;;;;;;11.75;2.00;;;11.30;95.70;;;;;;4833770;29;20050;-89
2023/01/05 11:11:36;;;;;;;10.27;2.25;;;11.40;95.70;;;;;;4814763;29;20054;-89
2023/01/05 11:14:04;;;;;;;14.43;2.25;;;11.40;95.60;;;;;;4815001;29;20442;-89
2023/01/05 11:16:34;;;;;;;17.17;3.17;;;11.40;95.60;;;;;;4814642;29;20050;-89
2023/01/05 11:19:05;;;;;;;13.73;2.83;;;11.40;95.40;;;;;;4814680;29;20555;-89
2023/01/05 11:21:36;;;;;;;13.50;2.40;;;11.40;95.50;;;;;;4814725;29;20046;-89
2023/01/05 11:24:24;;;;;;;15.00;3.40;;;11.40;95.50;;;;;;4828989;29;20493;-89
2023/01/05 11:26:53;;;;;;;11.00;2.30;;;11.50;95.50;;;;;;4831618;29;20045;-89
2023/01/05 11:29:24;;;;;;;20.20;3.20;;;11.50;95.40;;;;;;4815034;29;20068;-89
2023/01/05 11:31:53;;;;;;;21.25;3.05;;;11.50;95.70;;;;;;4814565;29;20046;-88
2023/01/05 11:34:44;;;;;;;16.02;2.67;;;11.60;95.30;;;;;;4813618;29;20053;-89
2023/01/05 11:37:14;;;;;;;14.70;2.80;;;11.60;95.30;;;;;;4815295;29;20065;-88
2023/01/05 11:40:33;;;;;;;15.45;3.33;;;11.60;95.20;;;;;;5122480;24;20058;-96
2023/01/05 11:47:07;;;;;;;11.85;1.88;;;11.70;95.10;;;;;;4807843;29;20516;-91
2023/01/05 11:49:45;;;;;;;15.30;3.35;;;11.80;95.10;;;;;;4807809;29;20079;-91
2023/01/05 11:56:32;;;;;;;20.48;3.35;;;11.90;95.00;;;;;;4805010;29;20059;-90
2023/01/05 11:59:02;;;;;;;13.90;2.60;;;11.80;94.90;;;;;;4799956;29;20046;-96
2023/01/05 12:02:28;;;;;;;16.83;2.70;;;11.90;95.00;;;;;;4794564;29;20055;-93
2023/01/05 12:05:16;;;;;;;13.23;2.75;;;11.90;95.00;;;;;;4723034;30;20091;-96
2023/01/05 12:07:59;;;;;;;20.02;2.92;;;11.80;95.00;;;;;;4724739;30;20049;-96
2023/01/05 12:10:56;;;;;;;18.20;4.15;;;11.80;95.00;;;;;;4746943;30;20138;-96
2023/01/05 12:13:50;;;;;;;19.67;3.55;;;11.80;94.90;;;;;;4730112;30;20055;-93
2023/01/05 12:17:06;;;;;;;19.63;4.28;;;11.90;95.20;;;;;;4801352;29;20051;-95
2023/01/05 12:19:58;;;;;;;23.73;4.00;;;11.90;94.80;;;;;;4792029;29;20082;-95
2023/01/05 12:23:02;;;;;;;21.53;4.33;;;11.80;94.70;;;;;;4793209;29;20107;-90
2023/01/05 12:26:04;;;;;;;14.10;2.65;;;11.80;94.50;;;;;;4792961;29;20300;-93
2023/01/05 12:28:47;;;;;;;17.40;4.05;;;11.90;94.60;;;;;;4770555;29;20603;-87
2023/01/05 12:31:48;;;;;;;21.83;4.47;;;11.90;94.40;;;;;;4778565;29;20062;-87
2023/01/05 12:34:56;;;;;;;15.07;4.03;;;12.00;94.20;;;;;;4779143;29;20490;-88
2023/01/05 12:39:01;;;;;;;;;;;;;;;;;;;;;
2023/01/05 12:42:09;;;;;;;;;;;;;;;;;;;;;
2023/01/05 12:45:08;;;;;;;14.45;3.55;;;12.20;93.90;;;;;;4773957;29;20058;-87
2023/01/05 12:48:55;;;;;;;;;;;;;;;;;;;;;
2023/01/05 13:01:00;;;;;;;11.70;3.13;;;12.30;93.50;;;;;;4784027;30;20517;-92
2023/01/05 13:04:36;;;;;;;;;;;;;;;;;;;;;
2023/01/05 13:24:16;;;;;;;12.85;3.10;;;12.20;93.20;;;;;;4762641;29;20047;-87
2023/01/05 13:26:51;;;;;;;16.20;3.45;;;12.10;93.20;;;;;;4822993;29;20451;-88
2023/01/05 13:29:58;;;;;;;;;;;;;;;;;;;;;
2023/01/05 13:32:59;;;;;;;15.57;3.53;;;12.00;93.40;;;;;;4821838;29;20167;-88
2023/01/05 13:40:49;;;;;;;12.10;2.78;;;11.90;93.60;;;;;;4819070;29;20046;-89
2023/01/05 13:43:54;;;;;;;;;;;;;;;;;;;;;
2023/01/05 13:51:40;;;;;;;15.52;3.35;;;11.70;93.90;;;;;;4766978;30;20446;-88
2023/01/05 13:59:08;;;;;;;10.38;2.78;;;11.70;94.10;;;;;;4787592;29;20047;-88
2023/01/05 14:03:06;;;;;;;14.48;2.60;;;11.70;94.00;;;;;;4771951;29;20130;-87
2023/01/05 14:10:12;;;;;;;;;;;;;;;;;;;;;
2023/01/05 14:21:59;;;;;;;10.10;2.28;;;11.80;93.80;;;;;;4721697;30;20154;-92
2023/01/05 14:42:33;;;;;;;;;;;11.60;94.20;;;;;;4761781;30;20207;-90
2023/01/05 14:53:23;;;;;;;;;;;;;;;;;;;;;
2023/01/05 14:57:00;;;;;;;18.35;2.90;;;11.50;94.50;;;;;;4802394;29;20081;-88
2023/01/05 15:04:40;;;;;;;12.98;2.45;;;11.50;94.60;;;;;;4776184;29;20054;-92
2023/01/05 15:08:12;;;;;;;14.00;2.72;;;11.40;94.70;;;;;;4744051;30;20060;-93
2023/01/05 15:11:27;;;;;;;12.10;2.42;;;11.40;94.80;;;;;;4771472;30;20056;-88
2023/01/05 15:14:37;;;;;;;13.73;3.45;;;11.30;94.80;;;;;;4771412;29;20055;-91
2023/01/05 15:17:50;;;;;;;14.55;2.40;;;11.30;94.90;;;;;;4772167;30;20055;-89
2023/01/05 15:21:10;;;;;;;11.82;2.40;;;11.30;95.00;;;;;;4771378;30;20055;-90
2023/01/05 15:24:06;;;;;;;12.70;2.97;;;11.40;95.00;;;;;;4771917;29;20789;-91
2023/01/05 15:27:11;;;;;;;14.40;2.10;;;11.30;95.10;;;;;;4770743;30;20091;-87
2023/01/05 15:35:16;;;;;;;12.10;2.25;;;11.30;95.20;;;;;;4820401;29;20159;-92
2023/01/05 15:37:51;;;;;;;16.65;2.67;;;11.20;95.30;;;;;;4808211;29;20520;-92
2023/01/05 15:40:27;;;;;;;13.23;2.40;;;11.10;95.40;;;;;;4794020;29;20138;-92
2023/01/05 15:43:33;;;;;;;11.63;3.00;;;11.10;95.50;;;;;;4818715;29;20452;-90
2023/01/05 15:46:05;;;;;;;5.63;1.50;;;11.10;95.60;;;;;;4807844;29;20082;-88
2023/01/05 15:49:34;;;;;;;8.93;2.28;;;11.10;95.70;;;;;;4823203;29;20057;-86
2023/01/05 15:52:02;;;;;;;7.85;2.00;;;11.10;95.70;;;;;;4812031;29;20046;-89
2023/01/05 15:59:34;;;;;;;;;;;11.10;95.80;;;;;;4792457;30;20043;-89
2023/01/05 16:02:45;;;;;;;10.60;1.77;;;11.10;95.80;;;;;;4822576;29;20028;-90